createdAt,value
2019-02-03T00:02:05.148Z,2.38
2019-02-03T00:04:54.876Z,2.28
2019-02-03T00:07:44.136Z,2.37
2019-02-03T00:10:34.169Z,2.37
2019-02-03T00:13:23.235Z,2.35
2019-02-03T00:16:12.419Z,2.38
2019-02-03T00:19:19.832Z,2.48
2019-02-03T00:22:09.932Z,2.45
2019-02-03T00:25:01.904Z,2.45
2019-02-03T00:27:52.366Z,2.32
2019-02-03T00:30:43.941Z,2.32
2019-02-03T00:33:33.413Z,2.26
2019-02-03T00:36:22.619Z,2.21
2019-02-03T00:39:11.373Z,2.18
2019-02-03T00:42:00.471Z,2.22
2019-02-03T00:48:05.996Z,2.01
2019-02-03T00:50:54.698Z,1.95
2019-02-03T00:53:43.582Z,1.97
2019-02-03T00:56:32.229Z,2.03
2019-02-03T00:59:21.257Z,2.05
2019-02-03T01:02:09.905Z,2.05
2019-02-03T01:04:59.116Z,2.00
2019-02-03T01:07:48.877Z,2.00
2019-02-03T01:10:37.608Z,1.97
2019-02-03T01:13:26.294Z,1.97
2019-02-03T01:16:14.797Z,1.99
2019-02-03T01:19:03.606Z,1.98
2019-02-03T01:21:52.376Z,1.92
2019-02-03T01:24:41.353Z,1.99
2019-02-03T01:27:30.383Z,2.01
2019-02-03T01:30:19.875Z,1.99
2019-02-03T01:33:08.887Z,1.99
2019-02-03T01:35:57.709Z,2.04
2019-02-03T01:38:46.082Z,2.09
2019-02-03T01:41:34.277Z,1.99
2019-02-03T01:44:23.233Z,1.99
2019-02-03T01:47:11.795Z,1.84
2019-02-03T01:49:59.994Z,1.84
2019-02-03T01:52:49.070Z,1.80
2019-02-03T01:55:38.087Z,1.80
2019-02-03T01:58:27.029Z,1.82
2019-02-03T02:01:15.514Z,1.87
2019-02-03T02:04:04.779Z,1.87
2019-02-03T02:06:53.514Z,1.85
2019-02-03T02:09:41.703Z,1.74
2019-02-03T02:12:30.642Z,1.74
2019-02-03T02:15:19.654Z,1.79
2019-02-03T02:18:08.809Z,1.89
2019-02-03T02:20:57.171Z,1.92
2019-02-03T02:23:46.367Z,1.83
2019-02-03T02:26:36.597Z,1.89
2019-02-03T02:29:25.001Z,1.93
2019-02-03T02:32:13.745Z,1.92
2019-02-03T02:35:03.445Z,1.92
2019-02-03T02:38:06.004Z,1.86
2019-02-03T02:40:42.937Z,1.86
2019-02-03T02:43:31.555Z,2.00
2019-02-03T02:46:20.415Z,1.96
2019-02-03T02:49:09.577Z,1.96
2019-02-03T02:52:03.453Z,2.04
2019-02-03T02:54:52.873Z,1.94
2019-02-03T02:57:41.125Z,1.87
2019-02-03T03:00:29.842Z,1.87
2019-02-03T03:03:19.089Z,1.92
2019-02-03T03:06:08.358Z,1.85
2019-02-03T03:08:57.589Z,1.87
2019-02-03T03:11:46.519Z,1.80
2019-02-03T03:14:36.539Z,1.73
2019-02-03T03:17:25.054Z,1.68
2019-02-03T03:20:15.568Z,1.78
2019-02-03T03:23:04.979Z,1.67
2019-02-03T03:25:53.420Z,1.73
2019-02-03T03:28:42.630Z,1.73
2019-02-03T03:31:31.013Z,1.72
2019-02-03T03:34:19.479Z,1.75
2019-02-03T03:37:08.046Z,1.77
2019-02-03T03:39:57.621Z,1.66
2019-02-03T03:42:46.663Z,1.66
2019-02-03T03:45:35.742Z,1.61
2019-02-03T03:48:24.418Z,1.64
2019-02-03T03:51:13.865Z,1.44
2019-02-03T03:54:03.526Z,1.50
2019-02-03T03:56:52.075Z,1.50
2019-02-03T03:59:40.530Z,1.47
2019-02-03T04:02:29.594Z,1.39
2019-02-03T04:05:19.162Z,1.41
2019-02-03T04:08:08.333Z,1.60
2019-02-03T04:10:57.512Z,1.56
2019-02-03T04:13:46.844Z,1.65
2019-02-03T04:16:36.720Z,1.57
2019-02-03T04:19:26.084Z,1.55
2019-02-03T04:22:14.725Z,1.46
2019-02-03T04:25:03.941Z,1.40
2019-02-03T04:27:52.870Z,1.39
2019-02-03T04:30:42.112Z,1.48
2019-02-03T04:33:31.368Z,1.50
2019-02-03T04:36:20.078Z,1.56
2019-02-03T04:39:09.178Z,1.49
2019-02-03T04:41:58.697Z,1.52
2019-02-03T04:44:47.206Z,1.56
2019-02-03T04:47:35.986Z,1.52
2019-02-03T04:50:24.800Z,1.52
2019-02-03T04:53:13.753Z,1.53
2019-02-03T04:56:02.184Z,1.50
2019-02-03T04:58:50.396Z,1.50
2019-02-03T05:01:39.188Z,1.47
2019-02-03T05:04:27.649Z,1.48
2019-02-03T05:07:18.202Z,1.48
2019-02-03T05:10:09.352Z,1.41
2019-02-03T05:12:58.025Z,1.43
2019-02-03T05:15:46.400Z,1.46
2019-02-03T05:18:35.128Z,1.30
2019-02-03T05:21:24.294Z,1.31
2019-02-03T05:24:14.020Z,1.31
2019-02-03T05:27:02.426Z,1.25
2019-02-03T05:29:51.386Z,1.27
2019-02-03T05:32:39.974Z,1.35
2019-02-03T05:35:28.127Z,1.31
2019-02-03T05:38:17.746Z,1.24
2019-02-03T05:41:06.616Z,1.13
2019-02-03T05:43:54.773Z,1.00
2019-02-03T05:46:43.070Z,0.98
2019-02-03T05:49:31.871Z,1.01
2019-02-03T05:52:21.074Z,1.03
2019-02-03T05:55:10.078Z,1.08
2019-02-03T05:57:59.822Z,1.01
2019-02-03T06:00:48.114Z,0.96
2019-02-03T06:03:36.945Z,0.99
2019-02-03T06:06:25.407Z,1.02
2019-02-03T06:09:15.145Z,1.02
2019-02-03T06:12:03.507Z,1.00
2019-02-03T06:14:51.898Z,1.01
2019-02-03T06:17:40.923Z,1.03
2019-02-03T06:20:29.835Z,1.03
2019-02-03T06:23:18.916Z,0.95
2019-02-03T06:26:07.654Z,0.99
2019-02-03T06:28:56.403Z,0.96
2019-02-03T06:31:44.553Z,0.95
2019-02-03T06:34:33.307Z,0.99
2019-02-03T06:37:22.188Z,1.03
2019-02-03T06:40:10.904Z,1.03
2019-02-03T06:43:00.002Z,0.90
2019-02-03T06:46:16.671Z,0.91
2019-02-03T06:49:09.379Z,0.92
2019-02-03T06:51:57.640Z,0.98
2019-02-03T06:54:46.242Z,0.98
2019-02-03T06:57:35.547Z,0.97
2019-02-03T07:00:24.662Z,1.00
2019-02-03T07:03:13.630Z,1.01
2019-02-03T07:06:03.397Z,1.05
2019-02-03T07:08:51.982Z,1.11
2019-02-03T07:11:41.216Z,1.02
2019-02-03T07:14:29.978Z,1.05
2019-02-03T07:17:19.338Z,1.08
2019-02-03T07:20:08.770Z,0.95
2019-02-03T07:23:27.596Z,1.07
2019-02-03T07:26:17.195Z,1.09
2019-02-03T07:29:05.800Z,1.14
2019-02-03T07:31:54.452Z,1.07
2019-02-03T07:34:42.558Z,1.04
2019-02-03T07:37:32.091Z,0.99
2019-02-03T07:40:20.304Z,0.95
2019-02-03T07:43:09.485Z,0.86
2019-02-03T07:45:58.087Z,0.88
2019-02-03T07:48:46.040Z,0.95
2019-02-03T07:51:34.538Z,0.94
2019-02-03T07:54:22.335Z,1.00
2019-02-03T07:57:11.577Z,0.93
2019-02-03T08:00:00.502Z,1.00
2019-02-03T08:02:49.131Z,0.96
2019-02-03T08:05:37.657Z,0.93
2019-02-03T08:08:26.065Z,0.92
2019-02-03T08:11:14.265Z,0.89
2019-02-03T08:14:03.265Z,0.96
2019-02-03T08:16:52.208Z,0.93
2019-02-03T08:19:40.861Z,1.05
2019-02-03T08:22:28.875Z,0.93
2019-02-03T08:25:17.960Z,0.97
2019-02-03T08:28:07.539Z,0.95
2019-02-03T08:30:56.110Z,0.95
2019-02-03T08:33:44.464Z,0.93
2019-02-03T08:36:33.443Z,0.96
2019-02-03T08:39:21.507Z,0.93
2019-02-03T08:42:09.946Z,1.05
2019-02-03T08:44:58.841Z,1.01
2019-02-03T08:47:47.272Z,1.00
2019-02-03T08:50:37.454Z,1.02
2019-02-03T08:53:26.961Z,1.01
2019-02-03T08:56:15.297Z,0.98
2019-02-03T08:59:03.968Z,0.97
2019-02-03T09:01:53.363Z,1.00
2019-02-03T09:04:42.716Z,1.02
2019-02-03T09:07:32.991Z,1.04
2019-02-03T09:10:22.617Z,1.04
2019-02-03T09:13:12.306Z,1.05
2019-02-03T09:16:01.953Z,1.01
2019-02-03T09:18:51.461Z,0.97
2019-02-03T09:21:41.055Z,1.04
2019-02-03T09:24:29.735Z,1.05
2019-02-03T09:27:18.547Z,1.12
2019-02-03T09:30:09.064Z,1.15
2019-02-03T09:32:58.398Z,1.05
2019-02-03T09:35:47.786Z,0.93
2019-02-03T09:38:36.913Z,0.93
2019-02-03T09:41:26.258Z,0.96
2019-02-03T09:44:14.721Z,0.87
2019-02-03T09:47:04.078Z,0.88
2019-02-03T09:49:53.210Z,0.87
2019-02-03T09:52:43.931Z,0.89
2019-02-03T09:55:32.575Z,0.98
2019-02-03T09:58:21.297Z,0.92
2019-02-03T10:01:09.704Z,0.85
2019-02-03T10:03:57.986Z,0.88
2019-02-03T10:06:50.852Z,0.95
2019-02-03T10:09:39.045Z,1.02
2019-02-03T10:12:28.244Z,1.16
2019-02-03T10:15:17.255Z,1.22
2019-02-03T10:18:08.104Z,1.11
2019-02-03T10:20:56.821Z,0.95
2019-02-03T10:23:45.855Z,0.93
2019-02-03T10:26:34.601Z,0.96
2019-02-03T10:29:22.953Z,0.87
2019-02-03T10:35:29.867Z,0.82
2019-02-03T10:38:18.487Z,0.80
2019-02-03T10:41:07.520Z,0.94
2019-02-03T10:43:56.706Z,1.09
2019-02-03T10:47:08.296Z,1.16
2019-02-03T10:50:01.537Z,1.26
2019-02-03T10:53:30.273Z,1.29
2019-02-03T10:56:24.323Z,1.25
2019-02-03T10:59:14.917Z,1.28
2019-02-03T11:02:04.415Z,1.38
2019-02-03T11:04:53.674Z,1.27
2019-02-03T11:07:42.817Z,1.34
2019-02-03T11:13:49.132Z,1.36
2019-02-03T11:16:42.179Z,1.45
2019-02-03T11:19:36.958Z,1.53
2019-02-03T11:22:47.463Z,1.42
2019-02-03T11:25:41.773Z,1.42
2019-02-03T11:28:32.979Z,1.20
2019-02-03T11:31:26.145Z,1.11
2019-02-03T11:34:14.730Z,1.14
2019-02-03T11:37:03.394Z,1.11
2019-02-03T11:39:52.342Z,1.16
2019-02-03T11:42:41.660Z,1.17
2019-02-03T11:48:50.307Z,1.01
2019-02-03T11:51:39.818Z,0.83
2019-02-03T11:54:28.275Z,0.83
2019-02-03T11:57:17.384Z,0.84
2019-02-03T12:00:08.229Z,0.79
2019-02-03T12:02:57.733Z,0.82
2019-02-03T12:05:46.407Z,0.70
2019-02-03T12:08:35.235Z,0.61
2019-02-03T12:11:24.686Z,0.57
2019-02-03T12:14:13.067Z,0.62
2019-02-03T12:17:02.979Z,0.69
2019-02-03T12:19:52.060Z,0.66
2019-02-03T12:22:40.751Z,0.67
2019-02-03T12:25:31.602Z,0.69
2019-02-03T12:28:19.497Z,0.72
2019-02-03T12:31:08.106Z,0.70
2019-02-03T12:33:56.442Z,0.73
2019-02-03T12:36:45.424Z,0.80
2019-02-03T12:39:35.343Z,0.83
2019-02-03T12:42:23.665Z,0.76
2019-02-03T12:45:13.951Z,0.98
2019-02-03T12:48:02.855Z,0.87
2019-02-03T12:50:51.249Z,0.83
2019-02-03T12:53:44.223Z,0.95
2019-02-03T12:56:35.727Z,0.92
2019-02-03T12:59:25.167Z,0.60
2019-02-03T13:02:19.635Z,0.44
2019-02-03T13:05:11.514Z,0.44
2019-02-03T13:08:01.376Z,0.54
2019-02-03T13:10:56.259Z,0.70
2019-02-03T13:13:44.738Z,0.64
2019-02-03T13:16:34.515Z,0.63
2019-02-03T13:19:24.140Z,0.69
2019-02-03T13:22:12.238Z,0.75
2019-02-03T13:25:02.042Z,0.79
2019-02-03T13:27:51.982Z,1.02
2019-02-03T13:30:51.228Z,1.10
2019-02-03T13:33:39.852Z,0.97
2019-02-03T13:36:28.730Z,0.86
2019-02-03T13:39:17.166Z,0.84
2019-02-03T13:42:05.545Z,0.70
2019-02-03T13:44:53.987Z,0.58
2019-02-03T13:47:42.610Z,0.55
2019-02-03T13:50:32.357Z,0.65
2019-02-03T13:53:21.318Z,0.63
2019-02-03T13:56:10.032Z,0.62
2019-02-03T13:58:58.718Z,0.72
2019-02-03T14:01:50.515Z,0.62
2019-02-03T14:04:37.720Z,0.45
2019-02-03T14:07:26.761Z,0.38
2019-02-03T14:10:17.476Z,0.42
2019-02-03T14:13:06.944Z,0.24
2019-02-03T14:15:55.584Z,0.37
2019-02-03T14:18:44.438Z,0.31
2019-02-03T14:21:33.016Z,0.39
2019-02-03T14:24:23.307Z,0.35
2019-02-03T14:27:12.857Z,0.31
2019-02-03T14:30:02.084Z,0.37
2019-02-03T14:32:51.693Z,0.32
2019-02-03T14:35:44.254Z,0.16
2019-02-03T14:38:36.568Z,0.12
2019-02-03T14:41:26.549Z,0.02
2019-02-03T14:44:15.617Z,0.02
2019-02-03T14:47:04.304Z,0.05
2019-02-03T14:49:53.299Z,0.15
2019-02-03T14:52:42.838Z,0.00
2019-02-03T14:55:36.839Z,0.01
2019-02-03T14:58:28.565Z,0.05
2019-02-03T15:01:19.556Z,0.07
2019-02-03T15:04:08.412Z,-0.02
2019-02-03T15:06:57.690Z,-0.02
2019-02-03T15:09:45.748Z,-0.09
2019-02-03T15:12:35.531Z,-0.14
2019-02-03T15:15:26.079Z,-0.07
2019-02-03T15:18:16.867Z,-0.04
2019-02-03T15:21:09.767Z,-0.12
2019-02-03T15:23:59.778Z,-0.20
2019-02-03T15:26:48.888Z,-0.28
2019-02-03T15:29:38.672Z,-0.20
2019-02-03T15:32:27.085Z,-0.29
2019-02-03T15:35:22.679Z,-0.23
2019-02-03T15:38:11.784Z,-0.28
2019-02-03T15:41:00.535Z,-0.36
2019-02-03T15:43:53.731Z,-0.42
2019-02-03T15:46:42.356Z,-0.27
2019-02-03T15:49:34.142Z,-0.24
2019-02-03T15:52:23.711Z,-0.37
2019-02-03T15:55:16.056Z,-0.40
2019-02-03T15:58:06.597Z,-0.37
2019-02-03T16:00:55.842Z,-0.40
2019-02-03T16:03:47.990Z,-0.45
2019-02-03T16:06:36.039Z,-0.40
2019-02-03T16:09:24.419Z,-0.48
2019-02-03T16:12:13.919Z,-0.54
2019-02-03T16:15:02.664Z,-0.52
2019-02-03T16:17:51.550Z,-0.74
2019-02-03T16:20:40.722Z,-0.80
2019-02-03T16:23:30.278Z,-0.71
2019-02-03T16:29:45.855Z,-0.74
2019-02-03T16:32:37.605Z,-0.88
2019-02-03T16:35:29.678Z,-0.78
2019-02-03T16:38:22.993Z,-0.74
2019-02-03T16:41:12.007Z,-0.73
2019-02-03T16:44:01.187Z,-0.73
2019-02-03T16:46:56.443Z,-0.74
2019-02-03T16:49:46.780Z,-0.53
2019-02-03T16:52:38.452Z,-0.55
2019-02-03T16:55:27.989Z,-0.53
2019-02-03T16:58:22.064Z,-0.51
2019-02-03T17:01:10.755Z,-0.51
2019-02-03T17:04:05.811Z,-0.40
2019-02-03T17:06:55.033Z,-0.39
2019-02-03T17:09:43.686Z,-0.44
2019-02-03T17:12:33.044Z,-0.60
2019-02-03T17:15:31.102Z,-0.67
2019-02-03T17:18:20.125Z,-0.84
2019-02-03T17:21:09.254Z,-0.88
2019-02-03T17:23:58.749Z,-0.88
2019-02-03T17:26:47.702Z,-0.87
2019-02-03T17:29:36.560Z,-0.76
2019-02-03T17:32:25.267Z,-0.73
2019-02-03T17:38:27.536Z,-0.75
2019-02-03T17:41:16.386Z,-0.62
2019-02-03T17:44:13.349Z,-0.51
2019-02-03T17:46:56.468Z,-0.49
2019-02-03T17:49:45.854Z,-0.49
2019-02-03T17:52:39.112Z,-0.37
2019-02-03T17:55:26.979Z,-0.37
2019-02-03T17:58:15.565Z,-0.34
2019-02-03T18:01:14.689Z,-0.40
2019-02-03T18:04:03.372Z,-0.45
2019-02-03T18:06:52.340Z,-0.45
2019-02-03T18:09:46.169Z,-0.45
2019-02-03T18:12:34.623Z,-0.56
2019-02-03T18:15:23.094Z,-0.47
2019-02-03T18:18:11.367Z,-0.44
2019-02-03T18:20:59.743Z,-0.42
2019-02-03T18:23:48.491Z,-0.46
2019-02-03T18:26:41.088Z,-0.59
2019-02-03T18:29:30.349Z,-0.59
2019-02-03T18:32:20.015Z,-0.53
2019-02-03T18:35:10.583Z,-0.53
2019-02-03T18:38:00.075Z,-0.56
2019-02-03T18:40:50.080Z,-0.58
2019-02-03T18:43:38.949Z,-0.58
2019-02-03T18:46:27.819Z,-0.63
2019-02-03T18:49:16.791Z,-0.65
2019-02-03T18:52:05.275Z,-0.65
2019-02-03T18:54:54.445Z,-0.63
2019-02-03T18:57:44.111Z,-0.62
2019-02-03T19:00:34.183Z,-0.50
2019-02-03T19:03:22.833Z,-0.51
2019-02-03T19:06:11.170Z,-0.52
2019-02-03T19:09:00.569Z,-0.47
2019-02-03T19:11:49.263Z,-0.48
2019-02-03T19:14:46.832Z,-0.44
2019-02-03T19:17:28.052Z,-0.53
2019-02-03T19:20:22.144Z,-0.64
2019-02-03T19:23:14.855Z,-0.61
2019-02-03T19:26:03.443Z,-0.61
2019-02-03T19:28:52.141Z,-0.74
2019-02-03T19:31:41.428Z,-0.67
2019-02-03T19:34:44.569Z,-0.67
2019-02-03T19:37:32.366Z,-0.56
2019-02-03T19:40:22.751Z,-0.53
2019-02-03T19:43:11.592Z,-0.50
2019-02-03T19:46:00.391Z,-0.52
2019-02-03T19:48:49.027Z,-0.46
2019-02-03T19:51:38.462Z,-0.40
2019-02-03T19:54:27.129Z,-0.44
2019-02-03T19:57:16.731Z,-0.36
2019-02-03T20:00:08.986Z,-0.39
2019-02-03T20:02:57.923Z,-0.46
2019-02-03T20:05:46.862Z,-0.36
2019-02-03T20:08:36.159Z,-0.58
2019-02-03T20:11:56.616Z,-0.58
2019-02-03T20:14:44.880Z,-0.53
2019-02-03T20:17:33.612Z,-0.41
2019-02-03T20:20:25.040Z,-0.46
2019-02-03T20:23:15.242Z,-0.43
2019-02-03T20:26:04.757Z,-0.51
2019-02-03T20:28:53.390Z,-0.42
2019-02-03T20:31:42.211Z,-0.47
2019-02-03T20:34:30.343Z,-0.52
2019-02-03T20:37:18.919Z,-0.44
2019-02-03T20:40:08.804Z,-0.44
2019-02-03T20:42:58.127Z,-0.43
2019-02-03T20:45:49.818Z,-0.40
2019-02-03T20:48:37.330Z,-0.39
2019-02-03T20:51:25.922Z,-0.31
2019-02-03T20:54:14.248Z,-0.33
2019-02-03T20:57:03.141Z,-0.33
2019-02-03T20:59:52.357Z,-0.43
2019-02-03T21:02:41.320Z,-0.34
2019-02-03T21:05:30.756Z,-0.35
2019-02-03T21:08:19.354Z,-0.38
2019-02-03T21:11:08.975Z,-0.43
2019-02-03T21:13:57.535Z,-0.43
2019-02-03T21:16:46.717Z,-0.43
2019-02-03T21:19:36.450Z,-0.35
2019-02-03T21:22:26.643Z,-0.33
2019-02-03T21:25:16.472Z,-0.41
2019-02-03T21:28:05.642Z,-0.39
2019-02-03T21:30:55.472Z,-0.39
2019-02-03T21:33:45.280Z,-0.36
2019-02-03T21:36:34.145Z,-0.36
2019-02-03T21:39:24.152Z,-0.38
2019-02-03T21:42:12.746Z,-0.41
2019-02-03T21:45:01.662Z,-0.40
2019-02-03T21:47:50.405Z,-0.47
2019-02-03T21:50:39.506Z,-0.42
2019-02-03T21:53:28.191Z,-0.46
2019-02-03T21:56:17.181Z,-0.49
2019-02-03T21:59:06.853Z,-0.38
2019-02-03T22:01:55.868Z,-0.29
2019-02-03T22:04:44.525Z,-0.47
2019-02-03T22:07:36.301Z,-0.42
2019-02-03T22:10:26.914Z,-0.57
2019-02-03T22:13:15.831Z,-0.51
2019-02-03T22:16:04.128Z,-0.42
2019-02-03T22:18:53.929Z,-0.47
2019-02-03T22:21:42.685Z,-0.41
2019-02-03T22:24:30.623Z,-0.42
2019-02-03T22:27:19.036Z,-0.37
2019-02-03T22:30:15.112Z,-0.48
2019-02-03T22:33:03.731Z,-0.45
2019-02-03T22:35:52.840Z,-0.45
2019-02-03T22:38:41.041Z,-0.45
2019-02-03T22:41:29.993Z,-0.41
2019-02-03T22:44:18.515Z,-0.50
2019-02-03T22:47:07.599Z,-0.48
2019-02-03T22:49:56.548Z,-0.48
2019-02-03T22:52:46.771Z,-0.43
2019-02-03T22:55:35.903Z,-0.43
2019-02-03T22:58:24.589Z,-0.48
2019-02-03T23:01:23.612Z,-0.45
2019-02-03T23:04:21.973Z,-0.35
2019-02-03T23:07:10.760Z,-0.16
2019-02-03T23:09:59.277Z,-0.21
2019-02-03T23:12:48.069Z,-0.13
2019-02-03T23:15:37.098Z,0.05
2019-02-03T23:18:26.697Z,-0.20
2019-02-03T23:21:16.270Z,-0.07
2019-02-03T23:24:05.579Z,-0.07
2019-02-03T23:26:54.951Z,-0.07
2019-02-03T23:29:44.147Z,-0.04
2019-02-03T23:32:33.117Z,-0.02
2019-02-03T23:35:22.490Z,0.02
2019-02-03T23:38:10.988Z,-0.09
2019-02-03T23:41:00.260Z,-0.11
2019-02-03T23:43:48.869Z,-0.23
2019-02-03T23:46:37.816Z,-0.18
2019-02-03T23:49:26.022Z,-0.23
2019-02-03T23:52:14.404Z,-0.38
2019-02-03T23:55:02.894Z,-0.19
2019-02-03T23:57:51.088Z,-0.19
